Time;durP1;ratioP1;P1;durP2;ratioP2;P2;SDS_P1;SDS_P2;PMS_P1;PMS_P2;Temp;Humidity;BMP_temperature;BMP_pressure;BME280_temperature;BME280_humidity;BME280_pressure;Samples;Min_cycle;Max_cycle;Signal;HPM_P1;HPM_P2
2022/04/04 00:00:05;;;;;;;0.00;0.00;;;2.60;99.90;;;;;;5004364;28;20096;-63
2022/04/04 00:02:31;;;;;;;0.00;0.00;;;2.50;99.90;;;;;;5015134;28;20135;-63
2022/04/04 00:04:56;;;;;;;0.00;0.00;;;2.50;99.90;;;;;;5002923;28;20500;-63
2022/04/04 00:07:22;;;;;;;0.00;0.00;;;2.50;99.90;;;;;;5004162;28;20045;-63
2022/04/04 00:09:47;;;;;;;0.00;0.00;;;2.50;99.90;;;;;;5002384;28;20054;-63
2022/04/04 00:12:13;;;;;;;0.00;0.00;;;2.50;99.90;;;;;;5003921;28;20132;-64
2022/04/04 00:14:39;;;;;;;0.00;0.00;;;2.80;99.90;;;;;;5003347;28;20193;-63
2022/04/04 00:17:05;;;;;;;0.00;0.00;;;2.50;99.90;;;;;;5003838;28;20132;-63
2022/04/04 00:19:31;;;;;;;0.10;0.10;;;2.50;99.90;;;;;;5002745;28;20054;-63
2022/04/04 00:21:57;;;;;;;0.28;0.28;;;2.50;99.90;;;;;;5002937;28;20052;-63
2022/04/04 00:24:23;;;;;;;0.00;0.00;;;2.80;99.90;;;;;;5017731;28;20145;-63
2022/04/04 00:26:48;;;;;;;0.00;0.00;;;2.80;99.90;;;;;;5002911;28;20045;-62
2022/04/04 00:29:14;;;;;;;0.00;0.00;;;2.50;99.90;;;;;;5003900;28;20054;-64
2022/04/04 00:31:40;;;;;;;0.00;0.00;;;2.60;99.90;;;;;;5002367;28;20100;-63
2022/04/04 00:34:05;;;;;;;0.00;0.00;;;2.60;99.90;;;;;;5003669;28;20084;-65
2022/04/04 00:36:31;;;;;;;0.00;0.00;;;2.60;99.90;;;;;;5002394;28;20046;-64
2022/04/04 00:38:56;;;;;;;0.00;0.00;;;2.60;99.90;;;;;;5002191;28;20050;-63
2022/04/04 00:41:23;;;;;;;0.00;0.00;;;2.70;99.90;;;;;;5002757;28;20049;-63
2022/04/04 00:43:52;;;;;;;0.00;0.00;;;2.60;99.90;;;;;;5002573;28;20046;-64
2022/04/04 00:46:19;;;;;;;0.30;0.30;;;2.60;99.90;;;;;;5003563;28;20042;-63
2022/04/04 00:48:44;;;;;;;0.00;0.00;;;2.70;99.90;;;;;;5017421;28;20049;-64
2022/04/04 00:51:10;;;;;;;0.00;0.00;;;2.70;99.90;;;;;;5002129;28;20057;-64
2022/04/04 00:53:36;;;;;;;0.00;0.00;;;3.10;99.90;;;;;;5002236;28;20049;-63
2022/04/04 00:56:03;;;;;;;0.00;0.00;;;2.80;99.90;;;;;;5003150;28;20034;-63
2022/04/04 00:58:32;;;;;;;0.00;0.00;;;2.70;99.90;;;;;;5002355;28;20042;-64
2022/04/04 01:00:58;;;;;;;0.00;0.00;;;2.70;99.90;;;;;;5003519;28;20045;-63
2022/04/04 01:03:25;;;;;;;0.00;0.00;;;2.70;99.90;;;;;;5011229;28;20715;-63
2022/04/04 01:05:50;;;;;;;0.00;0.00;;;2.80;99.90;;;;;;5001928;28;20084;-62
2022/04/04 01:08:17;;;;;;;0.00;0.00;;;2.80;99.90;;;;;;5000431;28;20508;-62
2022/04/04 01:10:43;;;;;;;0.00;0.00;;;2.80;99.90;;;;;;5002119;28;20107;-61
2022/04/04 01:13:10;;;;;;;0.20;0.20;;;2.80;99.90;;;;;;5002960;28;20057;-63
2022/04/04 01:15:37;;;;;;;0.00;0.00;;;2.80;99.90;;;;;;5001942;28;20038;-63
2022/04/04 01:18:07;;;;;;;0.00;0.00;;;2.90;99.90;;;;;;5002756;28;20060;-63
2022/04/04 01:20:34;;;;;;;0.10;0.10;;;2.90;99.90;;;;;;5003136;28;20641;-63
2022/04/04 01:23:00;;;;;;;0.00;0.00;;;2.90;99.90;;;;;;5001106;28;20085;-62
2022/04/04 01:25:31;;;;;;;0.00;0.00;;;2.90;99.90;;;;;;5002588;28;20042;-64
2022/04/04 01:27:58;;;;;;;0.00;0.00;;;3.00;99.90;;;;;;5002154;28;20049;-62
2022/04/04 01:30:24;;;;;;;0.00;0.00;;;2.90;99.90;;;;;;5002184;28;20096;-63
2022/04/04 01:32:50;;;;;;;0.80;0.47;;;2.90;99.90;;;;;;5001471;28;20077;-62
2022/04/04 01:35:20;;;;;;;0.00;0.00;;;2.90;99.90;;;;;;5002234;28;20080;-63
2022/04/04 01:37:46;;;;;;;0.10;0.10;;;2.90;99.90;;;;;;4984131;28;20091;-63
2022/04/04 01:40:13;;;;;;;0.00;0.00;;;2.90;99.90;;;;;;5001461;28;20092;-63
2022/04/04 01:42:40;;;;;;;0.00;0.00;;;2.90;99.90;;;;;;5002282;28;20234;-63
2022/04/04 01:45:09;;;;;;;0.00;0.00;;;2.90;99.90;;;;;;5002184;28;20120;-63
2022/04/04 01:47:36;;;;;;;0.00;0.00;;;2.90;99.90;;;;;;5001343;28;20104;-63
2022/04/04 01:50:03;;;;;;;0.00;0.00;;;3.00;99.90;;;;;;5002385;28;20733;-64
2022/04/04 01:52:29;;;;;;;0.00;0.00;;;3.00;99.90;;;;;;5002256;28;20052;-63
2022/04/04 01:54:55;;;;;;;0.10;0.10;;;3.00;99.90;;;;;;5000722;28;20156;-62
2022/04/04 01:57:21;;;;;;;0.00;0.00;;;3.10;99.90;;;;;;5000060;28;20128;-64
2022/04/04 01:59:46;;;;;;;0.00;0.00;;;3.10;99.90;;;;;;5001430;28;20521;-62
2022/04/04 02:02:12;;;;;;;0.00;0.00;;;3.10;99.90;;;;;;5011612;28;20045;-63
2022/04/04 02:04:38;;;;;;;0.00;0.00;;;3.10;99.90;;;;;;5003177;28;20133;-62
2022/04/04 02:07:07;;;;;;;0.00;0.00;;;3.10;99.90;;;;;;5000077;28;20050;-62
2022/04/04 02:09:34;;;;;;;0.03;0.03;;;3.20;99.90;;;;;;5001396;28;20561;-63
2022/04/04 02:11:59;;;;;;;0.00;0.00;;;3.20;99.90;;;;;;5001848;28;20060;-62
2022/04/04 02:14:25;;;;;;;0.20;0.20;;;3.20;99.90;;;;;;4999743;28;20124;-63
2022/04/04 02:16:51;;;;;;;0.00;0.00;;;3.30;99.90;;;;;;5000857;28;20538;-63
2022/04/04 02:19:17;;;;;;;0.00;0.00;;;3.20;99.90;;;;;;5001546;28;20038;-62
2022/04/04 02:21:44;;;;;;;0.05;0.05;;;3.30;99.90;;;;;;5001294;28;20049;-62
2022/04/04 02:24:10;;;;;;;0.00;0.00;;;3.30;99.90;;;;;;5000990;28;20049;-63
2022/04/04 02:26:36;;;;;;;0.00;0.00;;;3.30;99.90;;;;;;5001465;28;20050;-63
2022/04/04 02:29:01;;;;;;;0.25;0.25;;;3.30;99.90;;;;;;5001657;28;20536;-63
2022/04/04 02:31:27;;;;;;;0.20;0.20;;;3.30;99.90;;;;;;5001125;28;20382;-63
2022/04/04 02:33:53;;;;;;;0.00;0.00;;;3.30;99.90;;;;;;5001305;28;20500;-63
2022/04/04 02:36:20;;;;;;;0.00;0.00;;;3.40;99.90;;;;;;5001702;28;20050;-62
2022/04/04 02:38:46;;;;;;;0.88;0.75;;;3.40;99.90;;;;;;5015528;28;20073;-65
2022/04/04 02:41:11;;;;;;;0.40;0.40;;;3.40;99.90;;;;;;5000770;28;20520;-62
2022/04/04 02:43:37;;;;;;;0.10;0.10;;;3.40;99.90;;;;;;5001033;28;20100;-62
2022/04/04 02:46:03;;;;;;;0.10;0.10;;;3.40;99.90;;;;;;5001559;28;20129;-63
2022/04/04 02:48:29;;;;;;;0.00;0.00;;;3.50;99.90;;;;;;5000437;28;20568;-62
2022/04/04 02:50:54;;;;;;;0.30;0.30;;;3.50;99.90;;;;;;5000649;28;20319;-63
2022/04/04 02:53:20;;;;;;;0.00;0.00;;;3.60;99.90;;;;;;5000845;28;20068;-62
2022/04/04 02:58:30;;;;;;;0.10;0.10;;;3.60;99.90;;;;;;5001686;28;20053;-63
2022/04/04 03:00:56;;;;;;;0.10;0.10;;;3.70;99.90;;;;;;5003206;28;20095;-64
2022/04/04 03:03:21;;;;;;;0.00;0.00;;;3.80;99.90;;;;;;5009790;28;20042;-63
2022/04/04 03:05:47;;;;;;;0.10;0.10;;;3.80;99.90;;;;;;4999043;28;20061;-62
2022/04/04 03:08:13;;;;;;;0.00;0.00;;;3.80;99.90;;;;;;5000452;28;20744;-64
2022/04/04 03:10:39;;;;;;;0.00;0.00;;;3.90;99.90;;;;;;5000924;28;20121;-65
2022/04/04 03:13:05;;;;;;;0.28;0.28;;;3.90;99.90;;;;;;5001860;28;20136;-62
2022/04/04 03:15:36;;;;;;;0.00;0.00;;;4.50;99.90;;;;;;5001100;28;20669;-63
2022/04/04 03:18:03;;;;;;;0.10;0.10;;;4.00;99.90;;;;;;5001367;28;20097;-63
2022/04/04 03:20:30;;;;;;;0.00;0.00;;;4.10;99.90;;;;;;5016538;28;20080;-62
2022/04/04 03:22:57;;;;;;;0.00;0.00;;;4.10;99.90;;;;;;4999650;28;20049;-63
2022/04/04 03:25:23;;;;;;;0.10;0.10;;;4.20;99.90;;;;;;5001428;28;20084;-63
2022/04/04 03:27:50;;;;;;;0.00;0.00;;;4.20;99.90;;;;;;5003528;28;20068;-62
2022/04/04 03:30:21;;;;;;;0.20;0.20;;;4.20;99.90;;;;;;5002664;28;20057;-63
2022/04/04 03:32:49;;;;;;;0.10;0.10;;;4.20;99.90;;;;;;5004301;28;20101;-62
2022/04/04 03:35:15;;;;;;;0.00;0.00;;;4.30;99.90;;;;;;5004795;28;20522;-63
2022/04/04 03:37:44;;;;;;;0.20;0.20;;;4.30;99.90;;;;;;5003505;28;20097;-62
2022/04/04 03:40:12;;;;;;;0.00;0.00;;;4.30;99.90;;;;;;5004460;28;20455;-62
2022/04/04 03:42:38;;;;;;;0.10;0.10;;;4.30;99.90;;;;;;5004069;28;20046;-63
2022/04/04 03:45:05;;;;;;;0.15;0.15;;;4.30;99.90;;;;;;5004939;28;20461;-63
2022/04/04 03:47:32;;;;;;;0.10;0.10;;;4.30;99.90;;;;;;5004293;28;20069;-63
2022/04/04 03:49:59;;;;;;;0.85;0.30;;;4.30;99.90;;;;;;5003944;28;20386;-62
2022/04/04 03:52:25;;;;;;;0.10;0.10;;;4.30;99.90;;;;;;5004237;28;20165;-63
2022/04/04 03:54:51;;;;;;;0.15;0.10;;;4.30;99.90;;;;;;5017606;28;20121;-63
2022/04/04 03:57:17;;;;;;;0.00;0.00;;;4.30;99.90;;;;;;5004005;28;20046;-62
2022/04/04 03:59:43;;;;;;;0.10;0.10;;;4.30;99.90;;;;;;5003990;28;20044;-62
2022/04/04 04:02:09;;;;;;;0.00;0.00;;;4.30;99.90;;;;;;5012696;28;20560;-62
2022/04/04 04:04:35;;;;;;;0.00;0.00;;;5.00;99.90;;;;;;5005710;28;20057;-62
2022/04/04 04:07:00;;;;;;;0.00;0.00;;;4.70;99.90;;;;;;5004103;28;20445;-63
2022/04/04 04:09:26;;;;;;;0.00;0.00;;;4.30;99.90;;;;;;5002878;28;20493;-63
2022/04/04 04:11:54;;;;;;;0.20;0.13;;;4.30;99.90;;;;;;5003352;28;20050;-62
2022/04/04 04:14:20;;;;;;;0.00;0.00;;;4.30;99.90;;;;;;5002143;28;20061;-64
2022/04/04 04:16:46;;;;;;;0.35;0.30;;;4.30;99.90;;;;;;5003419;28;20052;-63
2022/04/04 04:20:19;;;;;;;0.13;0.13;;;4.40;99.90;;;;;;5003666;28;20048;-63
2022/04/04 04:21:58;;;;;;;0.00;0.00;;;4.40;99.90;;;;;;5003227;28;20057;-63
2022/04/04 04:24:24;;;;;;;0.00;0.00;;;4.40;99.90;;;;;;5002971;28;20050;-63
2022/04/04 04:26:50;;;;;;;0.00;0.00;;;4.30;99.90;;;;;;5003434;28;20049;-62
2022/04/04 04:29:16;;;;;;;0.55;0.30;;;4.30;99.90;;;;;;5003400;28;20042;-62
2022/04/04 04:31:42;;;;;;;0.03;0.03;;;4.40;99.90;;;;;;5003320;28;20042;-62
2022/04/04 04:34:08;;;;;;;0.00;0.00;;;4.40;99.90;;;;;;5003612;28;20321;-62
2022/04/04 04:36:36;;;;;;;0.13;0.13;;;4.40;99.90;;;;;;5003244;28;20425;-62
2022/04/04 04:39:02;;;;;;;1.85;1.45;;;4.30;99.90;;;;;;5002053;28;20053;-62
2022/04/04 04:41:28;;;;;;;0.00;0.00;;;4.40;99.90;;;;;;5003313;28;20125;-63
2022/04/04 04:43:53;;;;;;;0.43;0.43;;;4.30;99.90;;;;;;5002510;28;20128;-63
2022/04/04 04:46:19;;;;;;;0.10;0.10;;;4.30;99.90;;;;;;5002970;28;20139;-62
2022/04/04 04:48:45;;;;;;;0.00;0.00;;;4.30;99.90;;;;;;5003009;28;20038;-61
2022/04/04 04:51:11;;;;;;;0.00;0.00;;;4.30;99.90;;;;;;5003197;28;20041;-62
2022/04/04 04:53:37;;;;;;;0.10;0.10;;;4.20;99.90;;;;;;5000589;28;20033;-61
2022/04/04 04:56:03;;;;;;;0.15;0.13;;;4.20;99.90;;;;;;5002835;28;20635;-64
2022/04/04 04:58:30;;;;;;;0.30;0.30;;;4.20;99.90;;;;;;5003127;28;20054;-63
2022/04/04 05:00:56;;;;;;;0.20;0.20;;;4.20;99.90;;;;;;5005025;28;20060;-64
2022/04/04 05:03:24;;;;;;;0.00;0.00;;;4.20;99.90;;;;;;5010994;28;20034;-64
2022/04/04 05:05:50;;;;;;;0.00;0.00;;;4.30;99.90;;;;;;5002219;28;20100;-63
2022/04/04 05:08:16;;;;;;;0.05;0.05;;;4.30;99.90;;;;;;5002062;28;20045;-63
2022/04/04 05:10:41;;;;;;;0.00;0.00;;;4.20;99.90;;;;;;5002425;28;20080;-62
2022/04/04 05:13:07;;;;;;;0.00;0.00;;;4.30;99.90;;;;;;5002152;28;20049;-63
2022/04/04 05:15:33;;;;;;;0.00;0.00;;;4.30;99.90;;;;;;5002480;28;20092;-63
2022/04/04 05:17:58;;;;;;;0.00;0.00;;;4.30;99.90;;;;;;5001811;28;20041;-64
2022/04/04 05:20:24;;;;;;;0.10;0.10;;;4.30;99.90;;;;;;5002328;28;20350;-64
2022/04/04 05:22:50;;;;;;;0.10;0.10;;;4.30;99.90;;;;;;5001687;28;20269;-62
2022/04/04 05:25:16;;;;;;;0.10;0.10;;;4.20;99.90;;;;;;5002373;28;20042;-63
2022/04/04 05:27:41;;;;;;;0.00;0.00;;;4.20;99.90;;;;;;5001847;28;20045;-63
2022/04/04 05:30:08;;;;;;;0.00;0.00;;;4.20;99.90;;;;;;5001855;28;20077;-63
2022/04/04 05:32:34;;;;;;;0.00;0.00;;;4.20;99.90;;;;;;5002622;28;20045;-62
2022/04/04 05:35:01;;;;;;;0.00;0.00;;;4.20;99.90;;;;;;5002394;28;20052;-63
2022/04/04 05:37:27;;;;;;;0.00;0.00;;;4.20;99.90;;;;;;5001569;28;20374;-63
2022/04/04 05:39:53;;;;;;;0.10;0.10;;;4.20;99.90;;;;;;5001069;28;20125;-63
2022/04/04 05:42:18;;;;;;;0.45;0.28;;;4.10;99.90;;;;;;5002457;28;20547;-63
2022/04/04 05:44:44;;;;;;;0.00;0.00;;;4.10;99.90;;;;;;5001795;28;20046;-62
2022/04/04 05:47:11;;;;;;;0.00;0.00;;;4.20;99.90;;;;;;5000267;28;20046;-63
2022/04/04 05:49:37;;;;;;;0.00;0.00;;;4.10;99.90;;;;;;5001156;28;20042;-63
2022/04/04 05:52:04;;;;;;;0.00;0.00;;;4.20;99.90;;;;;;5000462;28;20060;-64
2022/04/04 05:54:30;;;;;;;0.10;0.10;;;4.10;99.90;;;;;;5001386;28;20125;-64
2022/04/04 05:56:56;;;;;;;0.10;0.10;;;4.10;99.90;;;;;;5001122;28;20042;-64
2022/04/04 05:59:21;;;;;;;0.20;0.20;;;4.20;99.90;;;;;;5002179;28;20054;-63
2022/04/04 06:01:47;;;;;;;0.00;0.00;;;4.10;99.90;;;;;;5007403;28;20048;-64
2022/04/04 06:04:12;;;;;;;0.00;0.00;;;4.10;99.90;;;;;;5005577;28;20061;-63
2022/04/04 06:06:38;;;;;;;0.00;0.00;;;4.50;99.90;;;;;;5001253;28;20177;-63
2022/04/04 06:09:04;;;;;;;0.30;0.30;;;4.10;99.90;;;;;;5001207;28;20507;-63
2022/04/04 06:11:30;;;;;;;0.28;0.28;;;4.10;99.90;;;;;;5001601;28;20058;-64
2022/04/04 06:13:56;;;;;;;0.32;0.32;;;4.10;99.90;;;;;;5000822;28;20046;-63
2022/04/04 06:16:22;;;;;;;0.00;0.00;;;4.10;99.90;;;;;;5001772;28;20061;-64
2022/04/04 06:18:50;;;;;;;0.00;0.00;;;4.20;99.90;;;;;;5001305;28;20049;-62
2022/04/04 06:21:16;;;;;;;1.45;0.47;;;4.00;99.90;;;;;;5001733;28;20415;-63
2022/04/04 06:23:42;;;;;;;0.00;0.00;;;4.00;99.90;;;;;;4998877;28;20895;-64
2022/04/04 06:26:07;;;;;;;2.72;0.65;;;4.00;99.90;;;;;;5001661;28;20099;-64
2022/04/04 06:28:35;;;;;;;0.00;0.00;;;4.00;99.90;;;;;;5001926;28;20286;-63
2022/04/04 06:31:03;;;;;;;0.00;0.00;;;4.00;99.90;;;;;;5001639;28;20046;-64
2022/04/04 06:33:30;;;;;;;0.22;0.20;;;4.00;99.90;;;;;;5000190;28;20037;-63
2022/04/04 06:35:55;;;;;;;0.00;0.00;;;4.00;99.90;;;;;;4999851;28;20085;-62
2022/04/04 06:38:21;;;;;;;0.10;0.10;;;4.00;99.90;;;;;;5000900;28;20050;-63
2022/04/04 06:40:49;;;;;;;1.13;0.45;;;3.90;99.90;;;;;;5015724;28;20048;-62
2022/04/04 06:43:17;;;;;;;0.28;0.28;;;3.90;99.90;;;;;;5001400;28;20046;-62
2022/04/04 06:45:44;;;;;;;0.70;0.70;;;4.50;99.90;;;;;;5001182;28;20081;-62
2022/04/04 06:48:10;;;;;;;0.00;0.00;;;3.90;99.90;;;;;;5000871;28;20049;-63
2022/04/04 06:50:36;;;;;;;0.25;0.25;;;3.80;99.90;;;;;;5001324;28;20440;-63
2022/04/04 06:53:02;;;;;;;0.22;0.22;;;3.90;99.90;;;;;;5015915;28;20038;-63
2022/04/04 06:55:28;;;;;;;0.00;0.00;;;3.90;99.90;;;;;;5000065;28;20174;-64
2022/04/04 06:57:55;;;;;;;0.10;0.10;;;4.00;99.90;;;;;;5000272;28;20042;-63
2022/04/04 07:00:23;;;;;;;0.08;0.08;;;3.90;99.90;;;;;;5001179;28;20228;-63
2022/04/04 07:02:49;;;;;;;0.45;0.35;;;4.00;99.90;;;;;;5014748;28;20103;-64
2022/04/04 07:05:15;;;;;;;0.20;0.20;;;3.90;99.90;;;;;;5004983;28;20045;-65
2022/04/04 07:07:42;;;;;;;0.00;0.00;;;3.90;99.90;;;;;;5003775;28;20046;-63
2022/04/04 07:10:10;;;;;;;0.00;0.00;;;3.80;99.90;;;;;;5004800;28;20485;-62
2022/04/04 07:12:41;;;;;;;0.00;0.00;;;3.80;99.90;;;;;;5003734;28;20459;-63
2022/04/04 07:15:08;;;;;;;0.10;0.10;;;3.80;99.90;;;;;;5004290;28;20091;-63
2022/04/04 07:17:34;;;;;;;0.00;0.00;;;3.80;99.90;;;;;;5005160;28;20091;-64
2022/04/04 07:20:00;;;;;;;0.00;0.00;;;3.80;99.90;;;;;;5004866;28;20748;-63
2022/04/04 07:22:25;;;;;;;0.17;0.17;;;3.80;99.90;;;;;;5003611;28;20050;-63
2022/04/04 07:24:51;;;;;;;0.10;0.10;;;3.70;99.90;;;;;;5004248;28;20038;-63
2022/04/04 07:27:17;;;;;;;0.30;0.30;;;3.70;99.90;;;;;;5004368;28;20049;-63
2022/04/04 07:29:42;;;;;;;0.55;0.15;;;3.80;99.90;;;;;;5002794;28;20046;-64
2022/04/04 07:32:09;;;;;;;0.43;0.43;;;3.80;99.90;;;;;;5004024;28;20041;-63
2022/04/04 07:34:37;;;;;;;0.35;0.30;;;3.80;99.90;;;;;;5004750;28;20444;-63
2022/04/04 07:37:03;;;;;;;0.00;0.00;;;3.80;99.90;;;;;;5003937;28;20412;-63
2022/04/04 07:39:28;;;;;;;0.00;0.00;;;3.90;99.90;;;;;;5004315;28;20053;-64
2022/04/04 07:41:55;;;;;;;0.00;0.00;;;3.90;99.90;;;;;;5003981;28;20660;-64
2022/04/04 07:44:20;;;;;;;0.00;0.00;;;3.90;99.90;;;;;;5004582;28;20104;-64
2022/04/04 07:46:46;;;;;;;0.30;0.30;;;3.90;99.90;;;;;;5003831;28;20042;-63
2022/04/04 07:49:12;;;;;;;0.30;0.30;;;4.00;99.90;;;;;;5003802;28;20045;-63
2022/04/04 07:51:37;;;;;;;0.00;0.00;;;3.90;99.90;;;;;;5003916;28;20053;-63
2022/04/04 07:54:03;;;;;;;0.13;0.13;;;3.90;99.90;;;;;;5003648;28;20129;-63
2022/04/04 07:56:29;;;;;;;0.00;0.00;;;3.90;99.90;;;;;;5004221;28;20042;-64
2022/04/04 07:58:54;;;;;;;0.00;0.00;;;3.90;99.90;;;;;;5001684;28;20057;-63
2022/04/04 08:01:20;;;;;;;0.00;0.00;;;3.90;99.90;;;;;;5006728;28;20525;-63
2022/04/04 08:03:46;;;;;;;0.50;0.35;;;4.00;99.90;;;;;;5012429;28;20121;-62
2022/04/04 08:06:12;;;;;;;1.00;0.73;;;4.00;99.90;;;;;;5003975;28;20137;-63
2022/04/04 08:08:38;;;;;;;0.10;0.10;;;4.00;99.90;;;;;;5002235;28;20116;-64
2022/04/04 08:11:04;;;;;;;1.98;1.65;;;4.30;99.90;;;;;;5003687;28;20722;-63
2022/04/04 08:13:30;;;;;;;0.10;0.10;;;4.00;99.90;;;;;;5007187;28;20049;-64
2022/04/04 08:15:57;;;;;;;0.00;0.00;;;4.10;99.90;;;;;;5021141;28;20076;-63
2022/04/04 08:18:23;;;;;;;0.00;0.00;;;4.40;99.90;;;;;;5023712;28;20041;-64
2022/04/04 08:20:48;;;;;;;0.00;0.00;;;4.10;99.90;;;;;;5022986;28;20175;-63
2022/04/04 08:23:14;;;;;;;0.10;0.10;;;4.10;99.90;;;;;;5021317;28;20158;-63
2022/04/04 08:25:40;;;;;;;0.00;0.00;;;4.20;99.90;;;;;;5022448;28;20037;-62
2022/04/04 08:28:06;;;;;;;0.10;0.10;;;4.20;99.90;;;;;;5023521;28;20524;-63
2022/04/04 08:30:32;;;;;;;0.00;0.00;;;4.20;99.90;;;;;;5023738;28;20178;-63
2022/04/04 08:32:58;;;;;;;0.05;0.05;;;4.20;99.90;;;;;;5022672;28;20053;-59
2022/04/04 08:35:24;;;;;;;0.65;0.65;;;5.10;99.90;;;;;;5039035;28;20251;-64
2022/04/04 08:37:50;;;;;;;0.38;0.38;;;4.30;99.90;;;;;;5041908;28;20138;-63
2022/04/04 08:40:18;;;;;;;0.00;0.00;;;4.30;99.90;;;;;;5026189;28;20049;-64
2022/04/04 08:42:45;;;;;;;0.57;0.40;;;4.40;99.90;;;;;;5022293;28;20412;-63
2022/04/04 08:45:11;;;;;;;0.55;0.52;;;4.40;99.90;;;;;;5022878;28;20056;-65
2022/04/04 08:47:39;;;;;;;0.05;0.05;;;4.50;99.90;;;;;;5022568;28;20095;-65
2022/04/04 08:50:06;;;;;;;0.00;0.00;;;4.50;99.90;;;;;;5023034;28;20053;-63
2022/04/04 08:52:32;;;;;;;0.00;0.00;;;4.70;99.90;;;;;;5022166;28;20045;-63
2022/04/04 08:54:57;;;;;;;0.52;0.52;;;4.50;99.90;;;;;;5022502;28;20053;-63
2022/04/04 08:57:23;;;;;;;0.00;0.00;;;5.20;99.90;;;;;;5021274;28;20535;-63
2022/04/04 08:59:49;;;;;;;0.10;0.10;;;4.60;99.90;;;;;;5003098;28;20042;-65
2022/04/04 09:02:15;;;;;;;0.10;0.10;;;4.70;99.90;;;;;;5012326;28;20052;-64
2022/04/04 09:04:41;;;;;;;0.22;0.22;;;4.70;99.90;;;;;;5003979;28;20037;-63
2022/04/04 09:07:09;;;;;;;0.00;0.00;;;4.70;99.90;;;;;;5000951;28;20049;-64
2022/04/04 09:09:47;;;;;;;0.00;0.00;;;4.90;99.90;;;;;;5001650;28;20065;-64
2022/04/04 09:12:21;;;;;;;0.00;0.00;;;4.80;99.90;;;;;;5002940;28;20045;-64
2022/04/04 09:14:51;;;;;;;0.10;0.10;;;4.80;99.90;;;;;;5001195;28;20424;-63
2022/04/04 09:17:20;;;;;;;0.93;0.93;;;4.90;99.90;;;;;;5003732;28;20410;-64
2022/04/04 09:19:46;;;;;;;0.00;0.00;;;5.00;99.90;;;;;;5026692;28;20063;-63
2022/04/04 09:22:20;;;;;;;0.10;0.10;;;5.10;99.90;;;;;;5027217;28;20041;-64
2022/04/04 09:24:57;;;;;;;0.00;0.00;;;5.10;99.90;;;;;;5020021;28;20033;-64
2022/04/04 09:27:27;;;;;;;0.10;0.10;;;5.10;99.90;;;;;;5021047;28;20037;-65
2022/04/04 09:30:14;;;;;;;0.00;0.00;;;5.10;99.90;;;;;;5019870;28;20248;-64
2022/04/04 09:32:41;;;;;;;0.00;0.00;;;5.20;99.90;;;;;;5014405;28;20111;-63
2022/04/04 09:35:15;;;;;;;0.00;0.00;;;5.10;99.90;;;;;;5016186;28;20033;-64
2022/04/04 09:37:43;;;;;;;0.10;0.10;;;5.10;99.90;;;;;;5018559;28;20451;-63
2022/04/04 09:40:20;;;;;;;0.00;0.00;;;5.20;99.90;;;;;;5021288;28;20057;-64
2022/04/04 09:42:52;;;;;;;0.00;0.00;;;5.20;99.90;;;;;;5000372;28;20053;-63
2022/04/04 09:45:20;;;;;;;0.00;0.00;;;5.20;99.90;;;;;;5002259;28;20100;-62
2022/04/04 09:47:53;;;;;;;0.00;0.00;;;5.30;99.90;;;;;;5001522;28;20061;-64
2022/04/04 09:50:49;;;;;;;0.22;0.22;;;5.20;99.90;;;;;;5001709;28;20481;-66
2022/04/04 09:53:19;;;;;;;0.00;0.00;;;5.30;99.90;;;;;;5008574;28;20058;-67
2022/04/04 09:55:47;;;;;;;0.00;0.00;;;5.30;99.90;;;;;;5001108;28;20050;-65
2022/04/04 09:58:15;;;;;;;0.00;0.00;;;5.40;99.90;;;;;;5002111;28;20042;-66
2022/04/04 10:00:44;;;;;;;0.00;0.00;;;5.40;99.90;;;;;;5002060;28;20443;-65
2022/04/04 10:03:12;;;;;;;0.10;0.10;;;5.30;99.90;;;;;;5009933;28;20085;-66
2022/04/04 10:05:42;;;;;;;0.30;0.20;;;5.30;99.90;;;;;;5000574;28;20052;-65
2022/04/04 10:08:09;;;;;;;0.00;0.00;;;5.40;99.90;;;;;;5000937;28;20052;-66
2022/04/04 10:10:36;;;;;;;0.03;0.03;;;5.40;99.90;;;;;;5001119;28;20131;-65
2022/04/04 10:13:02;;;;;;;0.00;0.00;;;5.50;99.90;;;;;;5000363;28;20077;-67
2022/04/04 10:15:28;;;;;;;0.00;0.00;;;5.50;99.90;;;;;;5001898;28;20038;-66
2022/04/04 10:17:55;;;;;;;0.00;0.00;;;5.50;99.90;;;;;;5001356;28;20518;-66
2022/04/04 10:20:21;;;;;;;0.00;0.00;;;5.50;99.90;;;;;;5001085;28;20052;-67
2022/04/04 10:22:52;;;;;;;0.00;0.00;;;5.50;99.90;;;;;;5000588;28;20049;-65
2022/04/04 10:25:22;;;;;;;0.00;0.00;;;5.50;99.90;;;;;;5001692;28;20034;-66
2022/04/04 10:27:49;;;;;;;0.00;0.00;;;7.30;99.90;;;;;;4999576;28;20453;-65
2022/04/04 10:30:18;;;;;;;0.10;0.10;;;5.50;99.90;;;;;;5001935;28;20088;-67
2022/04/04 10:32:50;;;;;;;0.03;0.03;;;5.50;99.90;;;;;;5001579;28;20416;-66
2022/04/04 10:35:22;;;;;;;1.17;0.30;;;5.50;99.90;;;;;;5001284;28;20050;-66
2022/04/04 10:37:49;;;;;;;0.00;0.00;;;5.60;99.90;;;;;;5001507;28;20049;-65
2022/04/04 10:40:34;;;;;;;0.00;0.00;;;5.50;99.90;;;;;;5030768;28;20041;-66
2022/04/04 10:43:15;;;;;;;0.08;0.08;;;5.50;99.90;;;;;;5024469;28;20049;-66
2022/04/04 10:45:56;;;;;;;0.00;0.00;;;5.50;99.90;;;;;;5014136;28;20132;-60
2022/04/04 10:48:28;;;;;;;0.00;0.00;;;5.60;99.90;;;;;;5023150;28;20088;-60
2022/04/04 10:50:54;;;;;;;0.00;0.00;;;5.80;99.90;;;;;;5024527;28;20885;-61
2022/04/04 10:53:39;;;;;;;0.00;0.00;;;5.70;99.90;;;;;;5023969;28;20145;-61
2022/04/04 10:56:06;;;;;;;;;;;5.70;99.90;;;;;;5024959;28;20103;-58
2022/04/04 10:58:31;;;;;;;0.00;0.00;;;5.70;99.90;;;;;;5025589;28;20011;-61
2022/04/04 11:00:57;;;;;;;0.20;0.10;;;5.70;99.90;;;;;;5021603;28;20141;-61
2022/04/04 11:03:31;;;;;;;0.00;0.00;;;5.80;99.90;;;;;;5013518;28;20050;-61
2022/04/04 11:09:32;;;;;;;0.00;0.00;;;5.80;99.90;;;;;;5004521;28;20057;-61
2022/04/04 11:12:00;;;;;;;0.00;0.00;;;5.90;99.90;;;;;;4962141;28;20051;-61
2022/04/04 11:14:34;;;;;;;0.00;0.00;;;5.90;99.90;;;;;;4996680;28;20049;-62
2022/04/04 11:17:06;;;;;;;0.08;0.08;;;5.70;99.90;;;;;;5003359;28;20188;-61
2022/04/04 11:19:57;;;;;;;0.00;0.00;;;5.90;99.90;;;;;;5005227;28;20054;-61
2022/04/04 11:22:25;;;;;;;0.00;0.00;;;5.90;99.90;;;;;;5003742;28;20037;-61
2022/04/04 11:24:54;;;;;;;0.05;0.05;;;6.30;99.90;;;;;;5004242;28;20058;-61
2022/04/04 11:27:25;;;;;;;0.00;0.00;;;5.90;99.90;;;;;;5004446;28;20049;-62
2022/04/04 11:29:51;;;;;;;0.00;0.00;;;5.80;99.90;;;;;;5004338;28;20042;-62
2022/04/04 11:32:34;;;;;;;0.00;0.00;;;5.90;99.90;;;;;;5004242;28;20041;-61
2022/04/04 11:35:14;;;;;;;0.00;0.00;;;6.40;99.90;;;;;;5003381;28;20076;-61
2022/04/04 11:37:53;;;;;;;0.00;0.00;;;6.00;99.90;;;;;;5003471;28;20056;-61
2022/04/04 11:40:23;;;;;;;0.00;0.00;;;5.90;99.90;;;;;;5004355;28;20041;-61
2022/04/04 11:42:51;;;;;;;0.00;0.00;;;5.90;99.90;;;;;;5003533;28;20042;-59
2022/04/04 11:45:27;;;;;;;0.00;0.00;;;6.00;99.90;;;;;;5004321;28;20050;-60
2022/04/04 11:48:06;;;;;;;0.00;0.00;;;6.00;99.90;;;;;;5004262;28;20050;-59
2022/04/04 11:50:35;;;;;;;0.00;0.00;;;6.10;99.90;;;;;;5004746;28;20077;-60
2022/04/04 11:53:04;;;;;;;0.00;0.00;;;6.00;99.90;;;;;;5003620;28;20041;-59
2022/04/04 11:55:36;;;;;;;0.00;0.00;;;6.20;99.90;;;;;;5004274;28;20499;-60
2022/04/04 11:58:09;;;;;;;0.00;0.00;;;6.20;99.90;;;;;;5003068;28;20042;-59
2022/04/04 12:00:37;;;;;;;0.00;0.00;;;6.20;99.90;;;;;;5004362;28;20074;-60
2022/04/04 12:03:14;;;;;;;0.00;0.00;;;7.50;99.90;;;;;;5014161;28;20125;-59
2022/04/04 12:05:40;;;;;;;0.03;0.03;;;6.30;99.90;;;;;;5002332;28;20448;-59
2022/04/04 12:08:07;;;;;;;0.00;0.00;;;6.30;99.90;;;;;;5003152;28;20121;-60
2022/04/04 12:10:35;;;;;;;0.00;0.00;;;6.40;99.90;;;;;;5003952;28;20467;-60
2022/04/04 12:13:02;;;;;;;6.35;0.22;;;6.50;99.90;;;;;;5003765;28;20088;-60
2022/04/04 12:15:31;;;;;;;0.00;0.00;;;6.40;99.90;;;;;;5003986;28;20100;-59
2022/04/04 12:17:57;;;;;;;0.00;0.00;;;6.50;99.90;;;;;;5003472;28;20409;-60
2022/04/04 12:20:23;;;;;;;0.00;0.00;;;6.50;99.90;;;;;;5003321;28;20420;-60
2022/04/04 12:25:33;;;;;;;0.00;0.00;;;6.60;99.90;;;;;;5003426;28;20077;-61
2022/04/04 12:28:01;;;;;;;0.00;0.00;;;6.60;99.90;;;;;;5003476;28;20081;-60
2022/04/04 12:30:37;;;;;;;0.00;0.00;;;6.50;99.90;;;;;;5003780;28;20120;-60
2022/04/04 12:33:14;;;;;;;0.00;0.00;;;6.70;99.90;;;;;;5003185;28;20056;-59
2022/04/04 12:35:47;;;;;;;0.00;0.00;;;6.60;99.90;;;;;;5001616;28;20563;-60
2022/04/04 12:38:33;;;;;;;0.00;0.00;;;6.50;99.90;;;;;;5002485;28;20427;-59
2022/04/04 12:41:11;;;;;;;0.00;0.00;;;6.60;99.90;;;;;;5003148;28;20100;-61
2022/04/04 12:43:39;;;;;;;0.00;0.00;;;6.60;99.90;;;;;;5003097;28;20042;-59
2022/04/04 12:46:07;;;;;;;0.15;0.10;;;6.60;99.90;;;;;;5002799;28;20130;-59
2022/04/04 12:48:35;;;;;;;0.00;0.00;;;6.70;99.90;;;;;;5002108;28;20088;-59
2022/04/04 12:51:01;;;;;;;0.00;0.00;;;6.90;99.90;;;;;;5003524;28;20350;-59
2022/04/04 12:53:27;;;;;;;0.13;0.10;;;6.80;99.90;;;;;;5002093;28;20042;-59
2022/04/04 12:56:07;;;;;;;0.00;0.00;;;6.80;99.90;;;;;;5002705;28;20037;-60
2022/04/04 12:58:34;;;;;;;0.00;0.00;;;6.90;99.90;;;;;;5003143;28;20803;-59
2022/04/04 13:01:29;;;;;;;0.00;0.00;;;6.80;99.90;;;;;;5003195;28;20065;-60
2022/04/04 13:03:55;;;;;;;0.00;0.00;;;7.00;99.90;;;;;;5005074;28;20089;-60
2022/04/04 13:06:21;;;;;;;0.00;0.00;;;7.10;99.90;;;;;;5020084;28;20037;-59
2022/04/04 13:08:58;;;;;;;0.00;0.00;;;7.00;99.90;;;;;;5022156;28;20545;-58